sensor_id;sensor_type;location;lat;lon;timestamp;temperature;humidity
5154;DHT22;2595;53.584;10.084;2023-03-14T00:01:53;12.20;99.90
5154;DHT22;2595;53.584;10.084;2023-03-14T00:04:18;12.20;99.90
5154;DHT22;2595;53.584;10.084;2023-03-14T00:06:44;12.20;99.90
5154;DHT22;2595;53.584;10.084;2023-03-14T00:09:12;12.10;99.90
5154;DHT22;2595;53.584;10.084;2023-03-14T00:11:38;12.10;99.90
5154;DHT22;2595;53.584;10.084;2023-03-14T00:14:03;12.10;99.90
5154;DHT22;2595;53.584;10.084;2023-03-14T00:16:29;12.10;99.90
5154;DHT22;2595;53.584;10.084;2023-03-14T00:18:54;12.10;99.90
5154;DHT22;2595;53.584;10.084;2023-03-14T00:21:20;12.10;99.90
5154;DHT22;2595;53.584;10.084;2023-03-14T00:23:46;12.10;99.90
5154;DHT22;2595;53.584;10.084;2023-03-14T00:26:18;12.00;99.90
5154;DHT22;2595;53.584;10.084;2023-03-14T00:28:44;12.00;99.90
5154;DHT22;2595;53.584;10.084;2023-03-14T00:31:13;12.00;99.90
5154;DHT22;2595;53.584;10.084;2023-03-14T00:33:39;12.00;99.90
5154;DHT22;2595;53.584;10.084;2023-03-14T00:36:07;12.00;99.90
5154;DHT22;2595;53.584;10.084;2023-03-14T00:38:36;11.90;99.90
5154;DHT22;2595;53.584;10.084;2023-03-14T00:41:10;12.00;99.90
5154;DHT22;2595;53.584;10.084;2023-03-14T00:43:37;12.00;99.90
5154;DHT22;2595;53.584;10.084;2023-03-14T00:46:03;11.90;99.90
5154;DHT22;2595;53.584;10.084;2023-03-14T00:48:29;12.00;99.90
5154;DHT22;2595;53.584;10.084;2023-03-14T00:50:55;12.00;99.90
5154;DHT22;2595;53.584;10.084;2023-03-14T00:53:21;11.90;99.90
5154;DHT22;2595;53.584;10.084;2023-03-14T00:55:48;12.00;99.90
5154;DHT22;2595;53.584;10.084;2023-03-14T00:58:15;11.90;99.90
5154;DHT22;2595;53.584;10.084;2023-03-14T01:00:41;11.90;99.90
5154;DHT22;2595;53.584;10.084;2023-03-14T01:03:08;11.90;99.90
5154;DHT22;2595;53.584;10.084;2023-03-14T01:05:34;11.90;99.90
5154;DHT22;2595;53.584;10.084;2023-03-14T01:08:00;11.90;99.90
5154;DHT22;2595;53.584;10.084;2023-03-14T01:10:26;11.90;99.90
5154;DHT22;2595;53.584;10.084;2023-03-14T01:12:51;11.90;99.90
5154;DHT22;2595;53.584;10.084;2023-03-14T01:15:17;11.90;99.90
5154;DHT22;2595;53.584;10.084;2023-03-14T01:17:42;11.90;99.90
5154;DHT22;2595;53.584;10.084;2023-03-14T01:20:10;11.90;99.90
5154;DHT22;2595;53.584;10.084;2023-03-14T01:22:37;11.80;99.90
5154;DHT22;2595;53.584;10.084;2023-03-14T01:25:06;11.90;99.90
5154;DHT22;2595;53.584;10.084;2023-03-14T01:27:32;11.80;99.90
5154;DHT22;2595;53.584;10.084;2023-03-14T01:29:58;11.80;99.90
5154;DHT22;2595;53.584;10.084;2023-03-14T01:32:24;11.90;99.90
5154;DHT22;2595;53.584;10.084;2023-03-14T01:34:50;11.90;99.90
5154;DHT22;2595;53.584;10.084;2023-03-14T01:37:16;11.90;99.90
5154;DHT22;2595;53.584;10.084;2023-03-14T01:39:42;11.90;99.90
5154;DHT22;2595;53.584;10.084;2023-03-14T01:42:07;11.90;99.90
5154;DHT22;2595;53.584;10.084;2023-03-14T01:44:55;11.80;99.90
5154;DHT22;2595;53.584;10.084;2023-03-14T01:47:22;11.90;99.90
5154;DHT22;2595;53.584;10.084;2023-03-14T01:49:51;11.80;99.90
5154;DHT22;2595;53.584;10.084;2023-03-14T01:52:39;11.80;99.90
5154;DHT22;2595;53.584;10.084;2023-03-14T01:55:15;11.80;99.90
5154;DHT22;2595;53.584;10.084;2023-03-14T01:57:46;11.80;99.90
5154;DHT22;2595;53.584;10.084;2023-03-14T02:00:16;11.70;99.90
5154;DHT22;2595;53.584;10.084;2023-03-14T02:03:04;11.70;99.90
5154;DHT22;2595;53.584;10.084;2023-03-14T02:05:33;11.70;99.90
5154;DHT22;2595;53.584;10.084;2023-03-14T02:08:01;11.70;99.90
5154;DHT22;2595;53.584;10.084;2023-03-14T02:10:33;11.70;99.90
5154;DHT22;2595;53.584;10.084;2023-03-14T02:13:02;11.70;99.90
5154;DHT22;2595;53.584;10.084;2023-03-14T02:15:28;11.60;99.90
5154;DHT22;2595;53.584;10.084;2023-03-14T02:17:53;11.60;99.90
5154;DHT22;2595;53.584;10.084;2023-03-14T02:23:11;11.60;99.90
5154;DHT22;2595;53.584;10.084;2023-03-14T02:25:52;11.60;99.90
5154;DHT22;2595;53.584;10.084;2023-03-14T02:28:20;11.60;99.90
5154;DHT22;2595;53.584;10.084;2023-03-14T02:30:46;11.60;99.90
5154;DHT22;2595;53.584;10.084;2023-03-14T02:33:17;11.50;99.90
5154;DHT22;2595;53.584;10.084;2023-03-14T02:36:02;11.50;99.90
5154;DHT22;2595;53.584;10.084;2023-03-14T02:38:51;11.50;99.90
5154;DHT22;2595;53.584;10.084;2023-03-14T02:41:18;11.50;99.90
5154;DHT22;2595;53.584;10.084;2023-03-14T02:43:43;11.50;99.90
5154;DHT22;2595;53.584;10.084;2023-03-14T02:46:14;11.40;99.90
5154;DHT22;2595;53.584;10.084;2023-03-14T02:51:13;11.50;99.90
5154;DHT22;2595;53.584;10.084;2023-03-14T02:53:40;11.50;99.90
5154;DHT22;2595;53.584;10.084;2023-03-14T02:56:07;11.50;99.90
5154;DHT22;2595;53.584;10.084;2023-03-14T02:58:33;11.50;99.90
5154;DHT22;2595;53.584;10.084;2023-03-14T03:00:58;11.50;99.90
5154;DHT22;2595;53.584;10.084;2023-03-14T03:03:24;11.50;99.90
5154;DHT22;2595;53.584;10.084;2023-03-14T03:05:51;11.50;99.90
5154;DHT22;2595;53.584;10.084;2023-03-14T03:08:18;11.50;99.90
5154;DHT22;2595;53.584;10.084;2023-03-14T03:10:44;11.50;99.90
5154;DHT22;2595;53.584;10.084;2023-03-14T03:13:10;11.50;99.90
5154;DHT22;2595;53.584;10.084;2023-03-14T03:15:36;11.50;99.90
5154;DHT22;2595;53.584;10.084;2023-03-14T03:18:02;11.50;99.90
5154;DHT22;2595;53.584;10.084;2023-03-14T03:20:27;11.50;99.90
5154;DHT22;2595;53.584;10.084;2023-03-14T03:22:53;11.60;99.90
5154;DHT22;2595;53.584;10.084;2023-03-14T03:25:18;11.60;99.90
5154;DHT22;2595;53.584;10.084;2023-03-14T03:27:44;11.60;99.90
5154;DHT22;2595;53.584;10.084;2023-03-14T03:30:10;11.60;99.90
5154;DHT22;2595;53.584;10.084;2023-03-14T03:32:36;11.60;99.90
5154;DHT22;2595;53.584;10.084;2023-03-14T03:35:03;11.60;99.90
5154;DHT22;2595;53.584;10.084;2023-03-14T03:37:33;11.60;99.90
5154;DHT22;2595;53.584;10.084;2023-03-14T03:39:59;11.60;99.90
5154;DHT22;2595;53.584;10.084;2023-03-14T03:42:26;11.60;99.90
5154;DHT22;2595;53.584;10.084;2023-03-14T03:44:52;11.60;99.90
5154;DHT22;2595;53.584;10.084;2023-03-14T03:47:18;11.70;99.90
5154;DHT22;2595;53.584;10.084;2023-03-14T03:49:43;11.70;99.90
5154;DHT22;2595;53.584;10.084;2023-03-14T03:52:09;11.70;99.90
5154;DHT22;2595;53.584;10.084;2023-03-14T03:54:35;11.70;99.90
5154;DHT22;2595;53.584;10.084;2023-03-14T03:57:00;11.70;99.90
5154;DHT22;2595;53.584;10.084;2023-03-14T03:59:26;11.70;99.90
5154;DHT22;2595;53.584;10.084;2023-03-14T04:01:52;11.70;99.90
5154;DHT22;2595;53.584;10.084;2023-03-14T04:04:17;11.70;99.90
5154;DHT22;2595;53.584;10.084;2023-03-14T04:06:43;11.70;99.90
5154;DHT22;2595;53.584;10.084;2023-03-14T04:09:10;11.80;99.90
5154;DHT22;2595;53.584;10.084;2023-03-14T04:11:36;11.80;99.90
5154;DHT22;2595;53.584;10.084;2023-03-14T04:14:02;11.70;99.90
5154;DHT22;2595;53.584;10.084;2023-03-14T04:16:27;11.80;99.90
5154;DHT22;2595;53.584;10.084;2023-03-14T04:18:53;11.70;99.90
5154;DHT22;2595;53.584;10.084;2023-03-14T04:21:19;11.80;99.90
5154;DHT22;2595;53.584;10.084;2023-03-14T04:23:44;11.70;99.90
5154;DHT22;2595;53.584;10.084;2023-03-14T04:26:10;11.70;99.90
5154;DHT22;2595;53.584;10.084;2023-03-14T04:28:36;11.70;99.90
5154;DHT22;2595;53.584;10.084;2023-03-14T04:33:34;11.70;99.90
5154;DHT22;2595;53.584;10.084;2023-03-14T04:36:01;11.70;99.90
5154;DHT22;2595;53.584;10.084;2023-03-14T04:38:27;11.70;99.90
5154;DHT22;2595;53.584;10.084;2023-03-14T04:40:52;11.60;99.90
5154;DHT22;2595;53.584;10.084;2023-03-14T04:43:18;11.60;99.90
5154;DHT22;2595;53.584;10.084;2023-03-14T04:45:44;11.60;99.90
5154;DHT22;2595;53.584;10.084;2023-03-14T04:48:09;11.60;99.90
5154;DHT22;2595;53.584;10.084;2023-03-14T04:50:35;11.60;99.90
5154;DHT22;2595;53.584;10.084;2023-03-14T04:53:01;11.60;99.90
5154;DHT22;2595;53.584;10.084;2023-03-14T04:55:27;11.60;99.90
5154;DHT22;2595;53.584;10.084;2023-03-14T04:57:52;11.60;99.90
5154;DHT22;2595;53.584;10.084;2023-03-14T05:00:18;11.60;99.90
5154;DHT22;2595;53.584;10.084;2023-03-14T05:02:44;11.60;99.90
5154;DHT22;2595;53.584;10.084;2023-03-14T05:05:10;11.60;99.90
5154;DHT22;2595;53.584;10.084;2023-03-14T05:07:35;11.60;99.90
5154;DHT22;2595;53.584;10.084;2023-03-14T05:10:01;11.60;99.90
5154;DHT22;2595;53.584;10.084;2023-03-14T05:12:26;11.60;99.90
5154;DHT22;2595;53.584;10.084;2023-03-14T05:14:52;11.60;99.90
5154;DHT22;2595;53.584;10.084;2023-03-14T05:17:18;11.60;99.90
5154;DHT22;2595;53.584;10.084;2023-03-14T05:19:44;11.60;99.90
5154;DHT22;2595;53.584;10.084;2023-03-14T05:22:10;11.60;99.90
5154;DHT22;2595;53.584;10.084;2023-03-14T05:24:35;11.60;99.90
5154;DHT22;2595;53.584;10.084;2023-03-14T05:27:01;11.60;99.90
5154;DHT22;2595;53.584;10.084;2023-03-14T05:29:27;11.60;99.90
5154;DHT22;2595;53.584;10.084;2023-03-14T05:31:53;11.50;99.90
5154;DHT22;2595;53.584;10.084;2023-03-14T05:34:18;11.50;99.90
5154;DHT22;2595;53.584;10.084;2023-03-14T05:36:44;11.40;99.90
5154;DHT22;2595;53.584;10.084;2023-03-14T05:39:09;11.30;99.90
5154;DHT22;2595;53.584;10.084;2023-03-14T05:41:35;11.30;99.90
5154;DHT22;2595;53.584;10.084;2023-03-14T05:44:01;11.20;99.90
5154;DHT22;2595;53.584;10.084;2023-03-14T05:46:27;11.20;99.90
5154;DHT22;2595;53.584;10.084;2023-03-14T05:48:52;11.10;99.90
5154;DHT22;2595;53.584;10.084;2023-03-14T05:51:18;11.10;99.90
5154;DHT22;2595;53.584;10.084;2023-03-14T05:53:43;11.00;99.90
5154;DHT22;2595;53.584;10.084;2023-03-14T05:56:09;11.00;99.90
5154;DHT22;2595;53.584;10.084;2023-03-14T05:58:34;11.00;99.90
5154;DHT22;2595;53.584;10.084;2023-03-14T06:01:04;11.00;99.90
5154;DHT22;2595;53.584;10.084;2023-03-14T06:03:31;10.90;99.90
5154;DHT22;2595;53.584;10.084;2023-03-14T06:05:56;10.90;99.90
5154;DHT22;2595;53.584;10.084;2023-03-14T06:08:22;10.90;99.90
5154;DHT22;2595;53.584;10.084;2023-03-14T06:10:48;10.90;99.90
5154;DHT22;2595;53.584;10.084;2023-03-14T06:13:13;10.90;99.90
5154;DHT22;2595;53.584;10.084;2023-03-14T06:15:41;10.90;99.90
5154;DHT22;2595;53.584;10.084;2023-03-14T06:18:06;11.00;99.90
5154;DHT22;2595;53.584;10.084;2023-03-14T06:20:32;11.00;99.90
5154;DHT22;2595;53.584;10.084;2023-03-14T06:22:59;11.00;99.90
5154;DHT22;2595;53.584;10.084;2023-03-14T06:25:24;10.90;99.90
5154;DHT22;2595;53.584;10.084;2023-03-14T06:27:50;11.00;99.90
5154;DHT22;2595;53.584;10.084;2023-03-14T06:30:16;10.90;99.90
5154;DHT22;2595;53.584;10.084;2023-03-14T06:32:41;10.90;99.90
5154;DHT22;2595;53.584;10.084;2023-03-14T06:35:07;10.90;99.90
5154;DHT22;2595;53.584;10.084;2023-03-14T06:37:33;10.90;99.90
5154;DHT22;2595;53.584;10.084;2023-03-14T06:39:59;10.90;99.90
5154;DHT22;2595;53.584;10.084;2023-03-14T06:42:25;10.90;99.90
5154;DHT22;2595;53.584;10.084;2023-03-14T06:44:51;10.90;99.90
5154;DHT22;2595;53.584;10.084;2023-03-14T06:47:16;10.90;99.90
5154;DHT22;2595;53.584;10.084;2023-03-14T06:49:42;10.90;99.90
5154;DHT22;2595;53.584;10.084;2023-03-14T06:52:08;10.90;99.90
5154;DHT22;2595;53.584;10.084;2023-03-14T06:54:33;10.90;99.90
5154;DHT22;2595;53.584;10.084;2023-03-14T06:56:59;10.90;99.90
5154;DHT22;2595;53.584;10.084;2023-03-14T06:59:25;10.90;99.90
5154;DHT22;2595;53.584;10.084;2023-03-14T07:01:50;10.90;99.90
5154;DHT22;2595;53.584;10.084;2023-03-14T07:04:17;10.90;99.90
5154;DHT22;2595;53.584;10.084;2023-03-14T07:06:43;10.90;99.90
5154;DHT22;2595;53.584;10.084;2023-03-14T07:09:12;10.90;99.90
5154;DHT22;2595;53.584;10.084;2023-03-14T07:11:38;10.90;99.90
5154;DHT22;2595;53.584;10.084;2023-03-14T07:14:04;10.90;99.90
5154;DHT22;2595;53.584;10.084;2023-03-14T07:16:30;10.90;99.90
5154;DHT22;2595;53.584;10.084;2023-03-14T07:18:58;10.90;99.90
5154;DHT22;2595;53.584;10.084;2023-03-14T07:21:24;10.90;99.90
5154;DHT22;2595;53.584;10.084;2023-03-14T07:23:50;10.90;99.90
5154;DHT22;2595;53.584;10.084;2023-03-14T07:26:15;10.90;99.90
5154;DHT22;2595;53.584;10.084;2023-03-14T07:28:41;11.00;99.90
5154;DHT22;2595;53.584;10.084;2023-03-14T07:31:07;11.00;99.90
5154;DHT22;2595;53.584;10.084;2023-03-14T07:33:32;11.00;99.90
5154;DHT22;2595;53.584;10.084;2023-03-14T07:35:58;11.10;99.90
5154;DHT22;2595;53.584;10.084;2023-03-14T07:38:24;11.10;99.90
5154;DHT22;2595;53.584;10.084;2023-03-14T07:40:50;11.10;99.90
5154;DHT22;2595;53.584;10.084;2023-03-14T07:43:15;11.10;99.90
5154;DHT22;2595;53.584;10.084;2023-03-14T07:45:44;11.10;99.90
5154;DHT22;2595;53.584;10.084;2023-03-14T07:48:10;11.10;99.90
5154;DHT22;2595;53.584;10.084;2023-03-14T07:50:36;11.10;99.90
5154;DHT22;2595;53.584;10.084;2023-03-14T07:53:01;11.10;99.90
5154;DHT22;2595;53.584;10.084;2023-03-14T07:55:27;11.10;99.90
5154;DHT22;2595;53.584;10.084;2023-03-14T07:57:52;11.10;99.90
5154;DHT22;2595;53.584;10.084;2023-03-14T08:00:18;11.10;99.90
5154;DHT22;2595;53.584;10.084;2023-03-14T08:02:44;11.10;99.90
5154;DHT22;2595;53.584;10.084;2023-03-14T08:05:09;11.10;99.90
5154;DHT22;2595;53.584;10.084;2023-03-14T08:07:36;11.10;99.90
5154;DHT22;2595;53.584;10.084;2023-03-14T08:10:02;11.10;99.90
5154;DHT22;2595;53.584;10.084;2023-03-14T08:12:28;11.10;99.90
5154;DHT22;2595;53.584;10.084;2023-03-14T08:14:53;11.10;99.90
5154;DHT22;2595;53.584;10.084;2023-03-14T08:17:19;11.10;99.90
5154;DHT22;2595;53.584;10.084;2023-03-14T08:19:44;11.10;99.90
5154;DHT22;2595;53.584;10.084;2023-03-14T08:22:10;11.10;99.90
5154;DHT22;2595;53.584;10.084;2023-03-14T08:24:35;11.20;99.90
5154;DHT22;2595;53.584;10.084;2023-03-14T08:27:01;11.20;99.90
5154;DHT22;2595;53.584;10.084;2023-03-14T08:29:27;11.20;99.90
5154;DHT22;2595;53.584;10.084;2023-03-14T08:31:52;11.20;99.90
5154;DHT22;2595;53.584;10.084;2023-03-14T08:34:19;11.30;99.90
5154;DHT22;2595;53.584;10.084;2023-03-14T08:36:45;11.30;99.90
5154;DHT22;2595;53.584;10.084;2023-03-14T08:39:10;11.30;99.90
5154;DHT22;2595;53.584;10.084;2023-03-14T08:41:36;11.20;99.90
5154;DHT22;2595;53.584;10.084;2023-03-14T08:44:10;11.30;99.90
5154;DHT22;2595;53.584;10.084;2023-03-14T08:46:39;11.30;99.90
5154;DHT22;2595;53.584;10.084;2023-03-14T08:49:04;11.30;99.90
5154;DHT22;2595;53.584;10.084;2023-03-14T08:51:30;11.30;99.90
5154;DHT22;2595;53.584;10.084;2023-03-14T08:53:55;11.30;99.90
5154;DHT22;2595;53.584;10.084;2023-03-14T08:56:21;11.40;99.90
5154;DHT22;2595;53.584;10.084;2023-03-14T08:58:46;11.30;99.90
5154;DHT22;2595;53.584;10.084;2023-03-14T09:01:12;11.30;99.90
5154;DHT22;2595;53.584;10.084;2023-03-14T09:03:38;11.30;99.90
5154;DHT22;2595;53.584;10.084;2023-03-14T09:06:08;11.30;99.90
5154;DHT22;2595;53.584;10.084;2023-03-14T09:08:34;11.40;99.90
5154;DHT22;2595;53.584;10.084;2023-03-14T09:11:00;11.30;99.90
5154;DHT22;2595;53.584;10.084;2023-03-14T09:13:25;11.30;99.90
5154;DHT22;2595;53.584;10.084;2023-03-14T09:15:55;11.30;99.90
5154;DHT22;2595;53.584;10.084;2023-03-14T09:18:21;11.30;99.90
5154;DHT22;2595;53.584;10.084;2023-03-14T09:20:48;11.30;99.90
5154;DHT22;2595;53.584;10.084;2023-03-14T09:23:14;11.30;99.90
5154;DHT22;2595;53.584;10.084;2023-03-14T09:25:40;11.30;99.90
5154;DHT22;2595;53.584;10.084;2023-03-14T09:28:06;11.30;99.90
5154;DHT22;2595;53.584;10.084;2023-03-14T09:30:31;11.30;99.90
5154;DHT22;2595;53.584;10.084;2023-03-14T09:32:57;11.30;99.90
5154;DHT22;2595;53.584;10.084;2023-03-14T09:35:24;11.30;99.90
5154;DHT22;2595;53.584;10.084;2023-03-14T09:37:50;11.30;99.90
5154;DHT22;2595;53.584;10.084;2023-03-14T09:40:17;11.30;99.90
5154;DHT22;2595;53.584;10.084;2023-03-14T09:42:43;11.30;99.90
5154;DHT22;2595;53.584;10.084;2023-03-14T09:45:17;11.30;99.90
5154;DHT22;2595;53.584;10.084;2023-03-14T09:47:44;11.30;99.90
5154;DHT22;2595;53.584;10.084;2023-03-14T09:50:13;11.30;99.90
5154;DHT22;2595;53.584;10.084;2023-03-14T09:52:44;11.30;99.90
5154;DHT22;2595;53.584;10.084;2023-03-14T09:55:18;11.30;99.90
5154;DHT22;2595;53.584;10.084;2023-03-14T09:57:45;11.20;99.90
5154;DHT22;2595;53.584;10.084;2023-03-14T10:00:17;11.20;99.90
5154;DHT22;2595;53.584;10.084;2023-03-14T10:02:59;11.10;99.90
5154;DHT22;2595;53.584;10.084;2023-03-14T10:05:27;11.00;99.90
5154;DHT22;2595;53.584;10.084;2023-03-14T10:07:55;10.70;99.90
5154;DHT22;2595;53.584;10.084;2023-03-14T10:10:23;10.50;99.90
5154;DHT22;2595;53.584;10.084;2023-03-14T10:12:59;10.20;99.90
5154;DHT22;2595;53.584;10.084;2023-03-14T10:15:32;10.10;99.90
5154;DHT22;2595;53.584;10.084;2023-03-14T10:18:00;9.90;99.90
5154;DHT22;2595;53.584;10.084;2023-03-14T10:20:36;9.80;99.90
5154;DHT22;2595;53.584;10.084;2023-03-14T10:25:35;9.50;99.90
5154;DHT22;2595;53.584;10.084;2023-03-14T10:28:03;9.40;99.90
5154;DHT22;2595;53.584;10.084;2023-03-14T10:33:20;9.20;99.90
5154;DHT22;2595;53.584;10.084;2023-03-14T10:35:52;9.10;99.90
5154;DHT22;2595;53.584;10.084;2023-03-14T10:38:18;8.90;99.90
5154;DHT22;2595;53.584;10.084;2023-03-14T10:40:48;8.80;99.90
5154;DHT22;2595;53.584;10.084;2023-03-14T10:43:17;8.60;99.90
5154;DHT22;2595;53.584;10.084;2023-03-14T10:45:52;8.40;99.90
5154;DHT22;2595;53.584;10.084;2023-03-14T10:48:30;8.30;99.90
5154;DHT22;2595;53.584;10.084;2023-03-14T10:51:06;8.20;99.90
5154;DHT22;2595;53.584;10.084;2023-03-14T10:53:44;8.10;99.90
5154;DHT22;2595;53.584;10.084;2023-03-14T10:56:34;7.90;99.90
5154;DHT22;2595;53.584;10.084;2023-03-14T10:59:02;7.80;99.90
5154;DHT22;2595;53.584;10.084;2023-03-14T11:01:58;7.70;99.90
5154;DHT22;2595;53.584;10.084;2023-03-14T11:07:26;7.60;99.90
5154;DHT22;2595;53.584;10.084;2023-03-14T11:15:27;7.30;99.90
5154;DHT22;2595;53.584;10.084;2023-03-14T11:24:01;7.10;99.90
5154;DHT22;2595;53.584;10.084;2023-03-14T11:29:24;7.00;99.90
5154;DHT22;2595;53.584;10.084;2023-03-14T11:31:55;7.00;99.90
5154;DHT22;2595;53.584;10.084;2023-03-14T11:40:13;6.80;99.90
5154;DHT22;2595;53.584;10.084;2023-03-14T11:42:39;6.80;99.90
5154;DHT22;2595;53.584;10.084;2023-03-14T11:45:19;6.70;99.90
5154;DHT22;2595;53.584;10.084;2023-03-14T11:47:51;6.70;99.90
5154;DHT22;2595;53.584;10.084;2023-03-14T11:50:28;6.60;99.90
5154;DHT22;2595;53.584;10.084;2023-03-14T11:53:03;6.60;99.90
5154;DHT22;2595;53.584;10.084;2023-03-14T11:55:40;6.60;99.90
5154;DHT22;2595;53.584;10.084;2023-03-14T11:58:37;6.70;99.90
5154;DHT22;2595;53.584;10.084;2023-03-14T12:01:09;6.60;99.90
5154;DHT22;2595;53.584;10.084;2023-03-14T12:03:52;6.70;99.90
5154;DHT22;2595;53.584;10.084;2023-03-14T12:06:57;6.70;99.90
5154;DHT22;2595;53.584;10.084;2023-03-14T12:09:20;6.70;99.90
5154;DHT22;2595;53.584;10.084;2023-03-14T12:11:58;6.80;99.90
5154;DHT22;2595;53.584;10.084;2023-03-14T12:14:34;6.90;99.90
5154;DHT22;2595;53.584;10.084;2023-03-14T12:19:39;6.80;99.90
5154;DHT22;2595;53.584;10.084;2023-03-14T12:22:26;6.80;99.90
5154;DHT22;2595;53.584;10.084;2023-03-14T12:27:43;6.90;99.90
5154;DHT22;2595;53.584;10.084;2023-03-14T12:35:57;6.80;99.90
5154;DHT22;2595;53.584;10.084;2023-03-14T12:44:39;6.80;99.90
5154;DHT22;2595;53.584;10.084;2023-03-14T12:49:48;6.90;99.90
5154;DHT22;2595;53.584;10.084;2023-03-14T12:52:21;6.90;99.90
5154;DHT22;2595;53.584;10.084;2023-03-14T12:57:48;7.00;99.90
5154;DHT22;2595;53.584;10.084;2023-03-14T13:00:20;7.00;99.90
5154;DHT22;2595;53.584;10.084;2023-03-14T13:02:47;6.90;99.90
5154;DHT22;2595;53.584;10.084;2023-03-14T13:05:20;6.90;99.90
5154;DHT22;2595;53.584;10.084;2023-03-14T13:10:30;6.90;99.90
5154;DHT22;2595;53.584;10.084;2023-03-14T13:15:44;7.00;99.90
5154;DHT22;2595;53.584;10.084;2023-03-14T13:18:16;7.00;99.90
5154;DHT22;2595;53.584;10.084;2023-03-14T13:23:26;7.00;99.90
5154;DHT22;2595;53.584;10.084;2023-03-14T13:25:52;7.00;99.90
5154;DHT22;2595;53.584;10.084;2023-03-14T13:28:18;7.00;99.90
5154;DHT22;2595;53.584;10.084;2023-03-14T13:30:46;7.10;99.90
5154;DHT22;2595;53.584;10.084;2023-03-14T13:33:15;7.20;99.90
5154;DHT22;2595;53.584;10.084;2023-03-14T13:35:47;7.30;99.90
5154;DHT22;2595;53.584;10.084;2023-03-14T13:38:17;7.30;99.90
5154;DHT22;2595;53.584;10.084;2023-03-14T13:40:43;7.40;99.90
5154;DHT22;2595;53.584;10.084;2023-03-14T13:48:14;7.40;99.90
5154;DHT22;2595;53.584;10.084;2023-03-14T13:51:17;7.30;99.90
5154;DHT22;2595;53.584;10.084;2023-03-14T13:56:12;7.20;99.90
5154;DHT22;2595;53.584;10.084;2023-03-14T13:58:39;7.20;99.90
5154;DHT22;2595;53.584;10.084;2023-03-14T14:03:54;7.10;99.90
5154;DHT22;2595;53.584;10.084;2023-03-14T14:08:49;7.20;99.90
5154;DHT22;2595;53.584;10.084;2023-03-14T14:11:48;7.20;99.90
5154;DHT22;2595;53.584;10.084;2023-03-14T14:16:50;7.10;99.90
5154;DHT22;2595;53.584;10.084;2023-03-14T14:19:18;7.00;99.90
5154;DHT22;2595;53.584;10.084;2023-03-14T14:21:44;7.00;99.90
5154;DHT22;2595;53.584;10.084;2023-03-14T14:24:14;7.00;99.90
5154;DHT22;2595;53.584;10.084;2023-03-14T14:26:50;7.10;99.90
5154;DHT22;2595;53.584;10.084;2023-03-14T14:29:29;7.10;99.90
5154;DHT22;2595;53.584;10.084;2023-03-14T14:34:27;7.20;99.90
5154;DHT22;2595;53.584;10.084;2023-03-14T14:36:52;7.20;99.90
5154;DHT22;2595;53.584;10.084;2023-03-14T14:39:21;7.20;99.90
5154;DHT22;2595;53.584;10.084;2023-03-14T14:41:50;7.20;99.90
5154;DHT22;2595;53.584;10.084;2023-03-14T14:44:21;7.10;99.90
5154;DHT22;2595;53.584;10.084;2023-03-14T14:46:54;7.20;99.90
5154;DHT22;2595;53.584;10.084;2023-03-14T14:49:20;7.20;99.90
5154;DHT22;2595;53.584;10.084;2023-03-14T14:51:50;7.20;99.90
5154;DHT22;2595;53.584;10.084;2023-03-14T14:54:18;7.20;99.90
5154;DHT22;2595;53.584;10.084;2023-03-14T14:56:52;7.20;99.90
5154;DHT22;2595;53.584;10.084;2023-03-14T14:59:28;7.10;99.90
5154;DHT22;2595;53.584;10.084;2023-03-14T15:01:58;7.10;99.90
5154;DHT22;2595;53.584;10.084;2023-03-14T15:04:25;7.10;99.90
5154;DHT22;2595;53.584;10.084;2023-03-14T15:06:51;7.10;99.90
5154;DHT22;2595;53.584;10.084;2023-03-14T15:09:18;7.10;99.90
5154;DHT22;2595;53.584;10.084;2023-03-14T15:11:45;7.00;99.90
5154;DHT22;2595;53.584;10.084;2023-03-14T15:14:11;7.10;99.90
5154;DHT22;2595;53.584;10.084;2023-03-14T15:16:37;7.10;99.90
5154;DHT22;2595;53.584;10.084;2023-03-14T15:19:11;7.20;99.90
5154;DHT22;2595;53.584;10.084;2023-03-14T15:21:37;7.20;99.90
5154;DHT22;2595;53.584;10.084;2023-03-14T15:24:04;7.30;99.90
5154;DHT22;2595;53.584;10.084;2023-03-14T15:26:30;7.20;99.90
5154;DHT22;2595;53.584;10.084;2023-03-14T15:28:56;7.30;99.90
5154;DHT22;2595;53.584;10.084;2023-03-14T15:31:22;7.20;99.90
5154;DHT22;2595;53.584;10.084;2023-03-14T15:33:48;7.30;99.90
5154;DHT22;2595;53.584;10.084;2023-03-14T15:36:27;7.20;99.90
5154;DHT22;2595;53.584;10.084;2023-03-14T15:38:54;7.20;99.90
5154;DHT22;2595;53.584;10.084;2023-03-14T15:41:21;7.20;99.90
5154;DHT22;2595;53.584;10.084;2023-03-14T15:43:47;7.10;99.90
5154;DHT22;2595;53.584;10.084;2023-03-14T15:46:13;7.10;99.90
5154;DHT22;2595;53.584;10.084;2023-03-14T15:48:40;7.10;99.90
5154;DHT22;2595;53.584;10.084;2023-03-14T15:51:06;7.10;99.90
5154;DHT22;2595;53.584;10.084;2023-03-14T15:53:32;7.00;99.90
5154;DHT22;2595;53.584;10.084;2023-03-14T15:55:58;7.00;99.90
5154;DHT22;2595;53.584;10.084;2023-03-14T15:58:24;7.00;99.90
5154;DHT22;2595;53.584;10.084;2023-03-14T16:00:50;6.90;99.90
5154;DHT22;2595;53.584;10.084;2023-03-14T16:03:15;6.90;99.90
5154;DHT22;2595;53.584;10.084;2023-03-14T16:05:41;6.80;99.90
5154;DHT22;2595;53.584;10.084;2023-03-14T16:08:07;6.80;99.90
5154;DHT22;2595;53.584;10.084;2023-03-14T16:10:32;6.80;99.90
5154;DHT22;2595;53.584;10.084;2023-03-14T16:12:59;6.80;99.90
5154;DHT22;2595;53.584;10.084;2023-03-14T16:15:24;6.80;99.90
5154;DHT22;2595;53.584;10.084;2023-03-14T16:17:53;6.90;99.90
5154;DHT22;2595;53.584;10.084;2023-03-14T16:20:20;6.80;99.90
5154;DHT22;2595;53.584;10.084;2023-03-14T16:22:46;6.80;99.90
5154;DHT22;2595;53.584;10.084;2023-03-14T16:25:12;6.90;99.90
5154;DHT22;2595;53.584;10.084;2023-03-14T16:27:38;6.80;99.90
5154;DHT22;2595;53.584;10.084;2023-03-14T16:30:04;6.80;99.90
5154;DHT22;2595;53.584;10.084;2023-03-14T16:32:30;6.80;99.90
5154;DHT22;2595;53.584;10.084;2023-03-14T16:34:56;6.70;99.90
5154;DHT22;2595;53.584;10.084;2023-03-14T16:37:25;6.60;99.90
5154;DHT22;2595;53.584;10.084;2023-03-14T16:39:52;6.50;99.90
5154;DHT22;2595;53.584;10.084;2023-03-14T16:42:18;6.50;99.90
5154;DHT22;2595;53.584;10.084;2023-03-14T16:44:44;6.50;99.90
5154;DHT22;2595;53.584;10.084;2023-03-14T16:47:10;6.50;99.90
5154;DHT22;2595;53.584;10.084;2023-03-14T16:49:35;6.40;99.90
5154;DHT22;2595;53.584;10.084;2023-03-14T16:52:01;6.40;99.90
5154;DHT22;2595;53.584;10.084;2023-03-14T16:54:27;6.30;99.90
5154;DHT22;2595;53.584;10.084;2023-03-14T16:56:53;6.30;99.90
5154;DHT22;2595;53.584;10.084;2023-03-14T16:59:19;6.30;99.90
5154;DHT22;2595;53.584;10.084;2023-03-14T17:01:44;6.30;99.90
5154;DHT22;2595;53.584;10.084;2023-03-14T17:04:11;6.30;99.90
5154;DHT22;2595;53.584;10.084;2023-03-14T17:06:37;6.30;99.90
5154;DHT22;2595;53.584;10.084;2023-03-14T17:09:03;6.30;99.90
5154;DHT22;2595;53.584;10.084;2023-03-14T17:11:30;6.20;99.90
5154;DHT22;2595;53.584;10.084;2023-03-14T17:13:58;6.20;99.90
5154;DHT22;2595;53.584;10.084;2023-03-14T17:16:23;6.20;99.90
5154;DHT22;2595;53.584;10.084;2023-03-14T17:18:49;6.10;99.90
5154;DHT22;2595;53.584;10.084;2023-03-14T17:21:15;6.10;99.90
5154;DHT22;2595;53.584;10.084;2023-03-14T17:23:41;6.10;99.90